sensor_id;sensor_type;location;lat;lon;timestamp;temperature;humidity
42037;DHT22;30340;52.004;5.908;2023-08-08T00:02:13;15.60;90.30
42037;DHT22;30340;52.004;5.908;2023-08-08T00:04:38;15.60;90.40
42037;DHT22;30340;52.004;5.908;2023-08-08T00:07:04;15.70;90.40
42037;DHT22;30340;52.004;5.908;2023-08-08T00:09:29;15.60;90.40
42037;DHT22;30340;52.004;5.908;2023-08-08T00:11:55;15.60;90.50
42037;DHT22;30340;52.004;5.908;2023-08-08T00:14:23;15.60;90.50
42037;DHT22;30340;52.004;5.908;2023-08-08T00:16:49;15.60;90.50
42037;DHT22;30340;52.004;5.908;2023-08-08T00:19:15;15.70;90.60
42037;DHT22;30340;52.004;5.908;2023-08-08T00:21:40;15.60;90.60
42037;DHT22;30340;52.004;5.908;2023-08-08T00:24:06;15.60;90.70
42037;DHT22;30340;52.004;5.908;2023-08-08T00:26:31;15.60;90.80
42037;DHT22;30340;52.004;5.908;2023-08-08T00:28:57;15.60;90.90
42037;DHT22;30340;52.004;5.908;2023-08-08T00:31:23;15.60;90.90
42037;DHT22;30340;52.004;5.908;2023-08-08T00:33:48;15.60;90.90
42037;DHT22;30340;52.004;5.908;2023-08-08T00:36:14;15.70;91.00
42037;DHT22;30340;52.004;5.908;2023-08-08T00:38:39;15.60;91.00
42037;DHT22;30340;52.004;5.908;2023-08-08T00:41:05;15.60;90.90
42037;DHT22;30340;52.004;5.908;2023-08-08T00:43:30;15.70;90.90
42037;DHT22;30340;52.004;5.908;2023-08-08T00:45:57;15.70;90.90
42037;DHT22;30340;52.004;5.908;2023-08-08T00:48:23;15.70;90.90
42037;DHT22;30340;52.004;5.908;2023-08-08T00:50:50;15.70;90.90
42037;DHT22;30340;52.004;5.908;2023-08-08T00:53:17;15.70;90.90
42037;DHT22;30340;52.004;5.908;2023-08-08T00:55:43;15.70;91.00
42037;DHT22;30340;52.004;5.908;2023-08-08T00:58:09;15.70;90.90
42037;DHT22;30340;52.004;5.908;2023-08-08T01:00:35;15.70;90.90
42037;DHT22;30340;52.004;5.908;2023-08-08T01:03:01;15.80;91.00
42037;DHT22;30340;52.004;5.908;2023-08-08T01:05:34;15.80;90.90
42037;DHT22;30340;52.004;5.908;2023-08-08T01:08:07;15.80;90.90
42037;DHT22;30340;52.004;5.908;2023-08-08T01:10:39;15.80;90.90
42037;DHT22;30340;52.004;5.908;2023-08-08T01:13:08;15.80;91.00
42037;DHT22;30340;52.004;5.908;2023-08-08T01:15:36;15.80;91.00
42037;DHT22;30340;52.004;5.908;2023-08-08T01:18:05;15.70;91.10
42037;DHT22;30340;52.004;5.908;2023-08-08T01:20:32;15.70;91.30
42037;DHT22;30340;52.004;5.908;2023-08-08T01:23:12;15.70;91.50
42037;DHT22;30340;52.004;5.908;2023-08-08T01:25:39;15.70;91.60
42037;DHT22;30340;52.004;5.908;2023-08-08T01:28:06;15.70;91.70
42037;DHT22;30340;52.004;5.908;2023-08-08T01:30:32;15.70;91.70
42037;DHT22;30340;52.004;5.908;2023-08-08T01:32:57;15.70;91.80
42037;DHT22;30340;52.004;5.908;2023-08-08T01:35:26;15.70;91.90
42037;DHT22;30340;52.004;5.908;2023-08-08T01:38:31;15.70;92.00
42037;DHT22;30340;52.004;5.908;2023-08-08T01:40:49;15.70;92.00
42037;DHT22;30340;52.004;5.908;2023-08-08T01:43:15;15.70;92.10
42037;DHT22;30340;52.004;5.908;2023-08-08T01:45:41;15.60;92.20
42037;DHT22;30340;52.004;5.908;2023-08-08T01:48:09;15.60;92.30
42037;DHT22;30340;52.004;5.908;2023-08-08T01:50:35;15.60;92.30
42037;DHT22;30340;52.004;5.908;2023-08-08T01:53:01;15.70;92.20
42037;DHT22;30340;52.004;5.908;2023-08-08T01:55:27;15.70;92.20
42037;DHT22;30340;52.004;5.908;2023-08-08T01:57:52;15.70;92.20
42037;DHT22;30340;52.004;5.908;2023-08-08T02:00:18;15.70;92.20
42037;DHT22;30340;52.004;5.908;2023-08-08T02:02:44;15.70;92.20
42037;DHT22;30340;52.004;5.908;2023-08-08T02:05:09;15.70;92.20
42037;DHT22;30340;52.004;5.908;2023-08-08T02:07:35;15.70;92.20
42037;DHT22;30340;52.004;5.908;2023-08-08T02:10:00;15.70;92.20
42037;DHT22;30340;52.004;5.908;2023-08-08T02:12:26;15.60;92.20
42037;DHT22;30340;52.004;5.908;2023-08-08T02:14:54;15.70;92.20
42037;DHT22;30340;52.004;5.908;2023-08-08T02:17:20;15.60;92.20
42037;DHT22;30340;52.004;5.908;2023-08-08T02:19:46;15.60;92.30
42037;DHT22;30340;52.004;5.908;2023-08-08T02:22:11;15.60;92.30
42037;DHT22;30340;52.004;5.908;2023-08-08T02:24:37;15.60;92.30
42037;DHT22;30340;52.004;5.908;2023-08-08T02:27:02;15.60;92.30
42037;DHT22;30340;52.004;5.908;2023-08-08T02:29:28;15.50;92.40
42037;DHT22;30340;52.004;5.908;2023-08-08T02:31:54;15.50;92.50
42037;DHT22;30340;52.004;5.908;2023-08-08T02:34:19;15.50;92.50
42037;DHT22;30340;52.004;5.908;2023-08-08T02:36:45;15.50;92.60
42037;DHT22;30340;52.004;5.908;2023-08-08T02:39:10;15.50;92.60
42037;DHT22;30340;52.004;5.908;2023-08-08T02:41:36;15.40;92.60
42037;DHT22;30340;52.004;5.908;2023-08-08T02:44:01;15.40;92.70
42037;DHT22;30340;52.004;5.908;2023-08-08T02:46:27;15.40;92.80
42037;DHT22;30340;52.004;5.908;2023-08-08T02:48:53;15.40;92.80
42037;DHT22;30340;52.004;5.908;2023-08-08T02:51:18;15.40;92.70
42037;DHT22;30340;52.004;5.908;2023-08-08T02:53:44;15.40;92.80
42037;DHT22;30340;52.004;5.908;2023-08-08T02:56:09;15.40;92.80
42037;DHT22;30340;52.004;5.908;2023-08-08T02:58:35;15.40;92.90
42037;DHT22;30340;52.004;5.908;2023-08-08T03:01:00;15.30;93.00
42037;DHT22;30340;52.004;5.908;2023-08-08T03:03:26;15.30;93.10
42037;DHT22;30340;52.004;5.908;2023-08-08T03:05:51;15.30;93.10
42037;DHT22;30340;52.004;5.908;2023-08-08T03:08:17;15.30;93.10
42037;DHT22;30340;52.004;5.908;2023-08-08T03:10:43;15.30;93.10
42037;DHT22;30340;52.004;5.908;2023-08-08T03:13:08;15.30;93.10
42037;DHT22;30340;52.004;5.908;2023-08-08T03:15:34;15.30;93.10
42037;DHT22;30340;52.004;5.908;2023-08-08T03:18:00;15.30;93.10
42037;DHT22;30340;52.004;5.908;2023-08-08T03:20:26;15.30;93.10
42037;DHT22;30340;52.004;5.908;2023-08-08T03:22:52;15.30;93.10
42037;DHT22;30340;52.004;5.908;2023-08-08T03:25:17;15.40;93.10
42037;DHT22;30340;52.004;5.908;2023-08-08T03:27:43;15.30;93.10
42037;DHT22;30340;52.004;5.908;2023-08-08T03:30:09;15.40;93.20
42037;DHT22;30340;52.004;5.908;2023-08-08T03:32:34;15.40;93.20
42037;DHT22;30340;52.004;5.908;2023-08-08T03:35:00;15.40;93.20
42037;DHT22;30340;52.004;5.908;2023-08-08T03:37:26;15.40;93.20
42037;DHT22;30340;52.004;5.908;2023-08-08T03:39:51;15.40;93.40
42037;DHT22;30340;52.004;5.908;2023-08-08T03:42:17;15.40;93.40
42037;DHT22;30340;52.004;5.908;2023-08-08T03:44:42;15.40;93.60
42037;DHT22;30340;52.004;5.908;2023-08-08T03:47:08;15.40;93.60
42037;DHT22;30340;52.004;5.908;2023-08-08T03:49:33;15.40;93.60
42037;DHT22;30340;52.004;5.908;2023-08-08T03:51:59;15.40;93.60
42037;DHT22;30340;52.004;5.908;2023-08-08T03:54:24;15.40;93.60
42037;DHT22;30340;52.004;5.908;2023-08-08T03:56:50;15.40;93.60
42037;DHT22;30340;52.004;5.908;2023-08-08T03:59:15;15.40;93.70
42037;DHT22;30340;52.004;5.908;2023-08-08T04:01:41;15.50;93.80
42037;DHT22;30340;52.004;5.908;2023-08-08T04:04:06;15.50;93.80
42037;DHT22;30340;52.004;5.908;2023-08-08T04:06:32;15.50;94.10
42037;DHT22;30340;52.004;5.908;2023-08-08T04:08:58;15.50;93.80
42037;DHT22;30340;52.004;5.908;2023-08-08T04:11:23;15.40;93.80
42037;DHT22;30340;52.004;5.908;2023-08-08T04:13:49;15.40;93.90
42037;DHT22;30340;52.004;5.908;2023-08-08T04:16:14;15.40;94.00
42037;DHT22;30340;52.004;5.908;2023-08-08T04:18:40;15.40;93.90
42037;DHT22;30340;52.004;5.908;2023-08-08T04:21:05;15.40;94.00
42037;DHT22;30340;52.004;5.908;2023-08-08T04:23:31;15.50;94.10
42037;DHT22;30340;52.004;5.908;2023-08-08T04:25:57;15.40;94.00
42037;DHT22;30340;52.004;5.908;2023-08-08T04:28:22;15.40;94.00
42037;DHT22;30340;52.004;5.908;2023-08-08T04:30:48;15.40;94.10
42037;DHT22;30340;52.004;5.908;2023-08-08T04:33:13;15.40;94.20
42037;DHT22;30340;52.004;5.908;2023-08-08T04:35:39;15.40;94.20
42037;DHT22;30340;52.004;5.908;2023-08-08T04:38:05;15.40;94.30
42037;DHT22;30340;52.004;5.908;2023-08-08T04:40:30;15.40;94.30
42037;DHT22;30340;52.004;5.908;2023-08-08T04:42:56;15.40;94.30
42037;DHT22;30340;52.004;5.908;2023-08-08T04:45:21;15.40;94.30
42037;DHT22;30340;52.004;5.908;2023-08-08T04:47:47;15.40;94.40
42037;DHT22;30340;52.004;5.908;2023-08-08T04:50:13;15.40;94.40
42037;DHT22;30340;52.004;5.908;2023-08-08T04:52:39;15.40;94.40
42037;DHT22;30340;52.004;5.908;2023-08-08T04:55:05;15.40;94.40
42037;DHT22;30340;52.004;5.908;2023-08-08T04:57:30;15.40;94.40
42037;DHT22;30340;52.004;5.908;2023-08-08T04:59:56;15.50;94.40
42037;DHT22;30340;52.004;5.908;2023-08-08T05:02:22;15.50;94.30
42037;DHT22;30340;52.004;5.908;2023-08-08T05:04:48;15.50;94.30
42037;DHT22;30340;52.004;5.908;2023-08-08T05:07:13;15.60;94.30
42037;DHT22;30340;52.004;5.908;2023-08-08T05:09:39;15.60;94.20
42037;DHT22;30340;52.004;5.908;2023-08-08T05:12:06;15.60;94.20
42037;DHT22;30340;52.004;5.908;2023-08-08T05:14:31;15.60;94.20
42037;DHT22;30340;52.004;5.908;2023-08-08T05:16:57;15.60;94.20
42037;DHT22;30340;52.004;5.908;2023-08-08T05:19:22;15.60;94.20
42037;DHT22;30340;52.004;5.908;2023-08-08T05:21:49;15.60;94.10
42037;DHT22;30340;52.004;5.908;2023-08-08T05:24:15;15.60;94.20
42037;DHT22;30340;52.004;5.908;2023-08-08T05:26:40;15.60;94.20
42037;DHT22;30340;52.004;5.908;2023-08-08T05:29:06;15.70;94.20
42037;DHT22;30340;52.004;5.908;2023-08-08T05:31:32;15.70;94.10
42037;DHT22;30340;52.004;5.908;2023-08-08T05:34:18;15.70;94.50
42037;DHT22;30340;52.004;5.908;2023-08-08T05:36:43;15.80;94.20
42037;DHT22;30340;52.004;5.908;2023-08-08T05:39:09;15.80;94.20
42037;DHT22;30340;52.004;5.908;2023-08-08T05:41:35;15.80;94.30
42037;DHT22;30340;52.004;5.908;2023-08-08T05:44:01;15.80;94.30
42037;DHT22;30340;52.004;5.908;2023-08-08T05:46:26;15.90;94.40
42037;DHT22;30340;52.004;5.908;2023-08-08T05:48:52;16.10;94.20
42037;DHT22;30340;52.004;5.908;2023-08-08T05:51:18;16.10;93.90
42037;DHT22;30340;52.004;5.908;2023-08-08T05:53:43;16.20;93.90
42037;DHT22;30340;52.004;5.908;2023-08-08T05:56:09;16.20;93.90
42037;DHT22;30340;52.004;5.908;2023-08-08T05:58:34;16.30;93.70
42037;DHT22;30340;52.004;5.908;2023-08-08T06:01:02;16.30;93.60
42037;DHT22;30340;52.004;5.908;2023-08-08T06:03:31;16.30;93.60
42037;DHT22;30340;52.004;5.908;2023-08-08T06:05:57;16.20;93.70
42037;DHT22;30340;52.004;5.908;2023-08-08T06:08:23;16.20;93.80
42037;DHT22;30340;52.004;5.908;2023-08-08T06:10:48;16.40;94.00
42037;DHT22;30340;52.004;5.908;2023-08-08T06:13:14;16.60;93.50
42037;DHT22;30340;52.004;5.908;2023-08-08T06:15:39;16.60;93.30
42037;DHT22;30340;52.004;5.908;2023-08-08T06:18:05;16.60;93.30
42037;DHT22;30340;52.004;5.908;2023-08-08T06:20:31;17.10;93.50
42037;DHT22;30340;52.004;5.908;2023-08-08T06:22:57;17.90;91.90
42037;DHT22;30340;52.004;5.908;2023-08-08T06:25:22;17.80;91.20
42037;DHT22;30340;52.004;5.908;2023-08-08T06:27:48;17.70;91.10
42037;DHT22;30340;52.004;5.908;2023-08-08T06:30:14;17.50;91.20
42037;DHT22;30340;52.004;5.908;2023-08-08T06:32:40;17.30;91.50
42037;DHT22;30340;52.004;5.908;2023-08-08T06:35:06;17.20;91.80
42037;DHT22;30340;52.004;5.908;2023-08-08T06:37:32;17.10;91.90
42037;DHT22;30340;52.004;5.908;2023-08-08T06:39:58;17.10;92.00
42037;DHT22;30340;52.004;5.908;2023-08-08T06:42:24;18.10;91.70
42037;DHT22;30340;52.004;5.908;2023-08-08T06:44:50;19.30;89.20
42037;DHT22;30340;52.004;5.908;2023-08-08T06:47:15;19.90;84.50
42037;DHT22;30340;52.004;5.908;2023-08-08T06:49:41;20.00;83.30
42037;DHT22;30340;52.004;5.908;2023-08-08T06:52:07;19.40;83.60
42037;DHT22;30340;52.004;5.908;2023-08-08T06:54:33;19.20;84.70
42037;DHT22;30340;52.004;5.908;2023-08-08T06:56:58;19.00;85.30
42037;DHT22;30340;52.004;5.908;2023-08-08T06:59:25;18.80;85.40
42037;DHT22;30340;52.004;5.908;2023-08-08T07:01:50;18.70;86.40
42037;DHT22;30340;52.004;5.908;2023-08-08T07:04:16;20.00;83.60
42037;DHT22;30340;52.004;5.908;2023-08-08T07:06:43;20.20;81.80
42037;DHT22;30340;52.004;5.908;2023-08-08T07:09:10;20.00;81.40
42037;DHT22;30340;52.004;5.908;2023-08-08T07:11:36;20.50;79.70
42037;DHT22;30340;52.004;5.908;2023-08-08T07:14:02;20.50;79.00
42037;DHT22;30340;52.004;5.908;2023-08-08T07:16:28;20.80;77.50
42037;DHT22;30340;52.004;5.908;2023-08-08T07:18:53;21.60;75.50
42037;DHT22;30340;52.004;5.908;2023-08-08T07:21:19;22.20;73.90
42037;DHT22;30340;52.004;5.908;2023-08-08T07:23:45;23.00;70.40
42037;DHT22;30340;52.004;5.908;2023-08-08T07:26:11;23.30;67.70
42037;DHT22;30340;52.004;5.908;2023-08-08T07:28:37;23.60;66.40
42037;DHT22;30340;52.004;5.908;2023-08-08T07:31:02;23.70;65.80
42037;DHT22;30340;52.004;5.908;2023-08-08T07:33:28;23.90;64.80
42037;DHT22;30340;52.004;5.908;2023-08-08T07:35:53;23.90;63.80
42037;DHT22;30340;52.004;5.908;2023-08-08T07:38:19;23.80;64.40
42037;DHT22;30340;52.004;5.908;2023-08-08T07:40:45;23.50;64.60
42037;DHT22;30340;52.004;5.908;2023-08-08T07:43:11;22.70;66.20
42037;DHT22;30340;52.004;5.908;2023-08-08T07:45:37;22.40;67.70
42037;DHT22;30340;52.004;5.908;2023-08-08T07:48:03;22.10;67.10
42037;DHT22;30340;52.004;5.908;2023-08-08T07:50:29;21.80;67.60
42037;DHT22;30340;52.004;5.908;2023-08-08T07:52:55;21.60;68.30
42037;DHT22;30340;52.004;5.908;2023-08-08T07:55:20;21.50;67.20
42037;DHT22;30340;52.004;5.908;2023-08-08T07:57:46;21.20;66.90
42037;DHT22;30340;52.004;5.908;2023-08-08T08:00:12;21.10;68.30
42037;DHT22;30340;52.004;5.908;2023-08-08T08:02:42;21.20;68.50
42037;DHT22;30340;52.004;5.908;2023-08-08T08:05:08;20.90;68.40
42037;DHT22;30340;52.004;5.908;2023-08-08T08:07:35;20.90;69.00
42037;DHT22;30340;52.004;5.908;2023-08-08T08:10:03;20.70;69.10
42037;DHT22;30340;52.004;5.908;2023-08-08T08:12:30;20.70;68.90
42037;DHT22;30340;52.004;5.908;2023-08-08T08:14:56;20.70;68.90
42037;DHT22;30340;52.004;5.908;2023-08-08T08:17:21;20.60;67.80
42037;DHT22;30340;52.004;5.908;2023-08-08T08:19:47;20.40;68.30
42037;DHT22;30340;52.004;5.908;2023-08-08T08:22:13;20.30;67.70
42037;DHT22;30340;52.004;5.908;2023-08-08T08:24:38;20.30;68.50
42037;DHT22;30340;52.004;5.908;2023-08-08T08:27:04;20.30;67.80
42037;DHT22;30340;52.004;5.908;2023-08-08T08:29:30;20.40;67.60
42037;DHT22;30340;52.004;5.908;2023-08-08T08:31:57;20.40;67.50
42037;DHT22;30340;52.004;5.908;2023-08-08T08:34:22;20.30;66.60
42037;DHT22;30340;52.004;5.908;2023-08-08T08:36:48;20.40;66.50
42037;DHT22;30340;52.004;5.908;2023-08-08T08:39:13;20.30;65.80
42037;DHT22;30340;52.004;5.908;2023-08-08T08:41:39;20.40;65.80
42037;DHT22;30340;52.004;5.908;2023-08-08T08:44:05;20.40;65.10
42037;DHT22;30340;52.004;5.908;2023-08-08T08:46:35;20.30;65.20
42037;DHT22;30340;52.004;5.908;2023-08-08T08:49:02;20.30;65.60
42037;DHT22;30340;52.004;5.908;2023-08-08T08:51:30;20.30;65.80
42037;DHT22;30340;52.004;5.908;2023-08-08T08:53:58;20.30;66.00
42037;DHT22;30340;52.004;5.908;2023-08-08T08:56:24;20.50;66.10
42037;DHT22;30340;52.004;5.908;2023-08-08T08:58:50;20.40;65.50
42037;DHT22;30340;52.004;5.908;2023-08-08T09:01:17;20.40;64.90
42037;DHT22;30340;52.004;5.908;2023-08-08T09:03:44;20.30;64.50
42037;DHT22;30340;52.004;5.908;2023-08-08T09:06:11;20.30;64.70
42037;DHT22;30340;52.004;5.908;2023-08-08T09:08:37;20.30;64.30
42037;DHT22;30340;52.004;5.908;2023-08-08T09:11:03;20.30;65.00
42037;DHT22;30340;52.004;5.908;2023-08-08T09:13:41;20.40;64.30
42037;DHT22;30340;52.004;5.908;2023-08-08T09:16:07;20.30;63.20
42037;DHT22;30340;52.004;5.908;2023-08-08T09:18:37;20.40;63.70
42037;DHT22;30340;52.004;5.908;2023-08-08T09:21:04;20.40;62.80
42037;DHT22;30340;52.004;5.908;2023-08-08T09:23:30;20.40;62.80
42037;DHT22;30340;52.004;5.908;2023-08-08T09:25:56;20.60;63.10
42037;DHT22;30340;52.004;5.908;2023-08-08T09:28:22;20.70;62.90
42037;DHT22;30340;52.004;5.908;2023-08-08T09:30:48;20.60;61.80
42037;DHT22;30340;52.004;5.908;2023-08-08T09:33:14;20.60;62.10
42037;DHT22;30340;52.004;5.908;2023-08-08T09:35:39;20.60;62.20
42037;DHT22;30340;52.004;5.908;2023-08-08T09:38:05;20.50;61.80
42037;DHT22;30340;52.004;5.908;2023-08-08T09:40:31;20.40;61.60
42037;DHT22;30340;52.004;5.908;2023-08-08T09:42:57;20.40;61.90
42037;DHT22;30340;52.004;5.908;2023-08-08T09:45:26;20.40;62.70
42037;DHT22;30340;52.004;5.908;2023-08-08T09:47:52;20.40;60.80
42037;DHT22;30340;52.004;5.908;2023-08-08T09:50:18;20.40;60.90
42037;DHT22;30340;52.004;5.908;2023-08-08T09:52:46;20.30;60.50
42037;DHT22;30340;52.004;5.908;2023-08-08T09:55:13;20.40;60.70
42037;DHT22;30340;52.004;5.908;2023-08-08T09:57:39;20.40;60.60
42037;DHT22;30340;52.004;5.908;2023-08-08T10:00:06;20.30;60.60
42037;DHT22;30340;52.004;5.908;2023-08-08T10:02:36;20.30;60.80
42037;DHT22;30340;52.004;5.908;2023-08-08T10:05:04;20.40;60.60
42037;DHT22;30340;52.004;5.908;2023-08-08T10:07:30;20.40;60.30
42037;DHT22;30340;52.004;5.908;2023-08-08T10:09:56;20.40;59.50
42037;DHT22;30340;52.004;5.908;2023-08-08T10:12:23;20.20;59.00
42037;DHT22;30340;52.004;5.908;2023-08-08T10:14:51;20.30;58.60
42037;DHT22;30340;52.004;5.908;2023-08-08T10:17:18;20.50;59.10
42037;DHT22;30340;52.004;5.908;2023-08-08T10:19:56;20.60;58.60
42037;DHT22;30340;52.004;5.908;2023-08-08T10:22:24;20.60;59.00
42037;DHT22;30340;52.004;5.908;2023-08-08T10:24:54;20.60;58.80
42037;DHT22;30340;52.004;5.908;2023-08-08T10:27:33;20.50;57.90
42037;DHT22;30340;52.004;5.908;2023-08-08T10:30:07;20.40;58.50
42037;DHT22;30340;52.004;5.908;2023-08-08T10:32:44;20.40;58.50
42037;DHT22;30340;52.004;5.908;2023-08-08T10:35:12;20.40;58.40
42037;DHT22;30340;52.004;5.908;2023-08-08T10:37:38;20.40;58.60
42037;DHT22;30340;52.004;5.908;2023-08-08T10:40:05;20.50;59.00
42037;DHT22;30340;52.004;5.908;2023-08-08T10:42:40;20.50;58.90
42037;DHT22;30340;52.004;5.908;2023-08-08T10:45:10;20.40;58.30
42037;DHT22;30340;52.004;5.908;2023-08-08T10:47:37;20.40;57.90
42037;DHT22;30340;52.004;5.908;2023-08-08T10:50:09;20.50;58.40
42037;DHT22;30340;52.004;5.908;2023-08-08T10:55:33;20.90;58.20
42037;DHT22;30340;52.004;5.908;2023-08-08T11:00:28;21.10;58.70
42037;DHT22;30340;52.004;5.908;2023-08-08T11:02:54;21.00;58.60
42037;DHT22;30340;52.004;5.908;2023-08-08T11:05:22;21.00;57.70
42037;DHT22;30340;52.004;5.908;2023-08-08T11:07:48;20.90;57.60
42037;DHT22;30340;52.004;5.908;2023-08-08T11:10:14;21.00;57.70
42037;DHT22;30340;52.004;5.908;2023-08-08T11:12:40;20.90;57.60
42037;DHT22;30340;52.004;5.908;2023-08-08T11:15:06;21.00;58.10
42037;DHT22;30340;52.004;5.908;2023-08-08T11:17:32;21.00;57.90
42037;DHT22;30340;52.004;5.908;2023-08-08T11:19:57;21.00;58.50
42037;DHT22;30340;52.004;5.908;2023-08-08T11:22:23;21.20;58.90
42037;DHT22;30340;52.004;5.908;2023-08-08T11:24:49;21.20;58.70
42037;DHT22;30340;52.004;5.908;2023-08-08T11:27:16;21.30;58.80
42037;DHT22;30340;52.004;5.908;2023-08-08T11:29:49;21.40;58.80
42037;DHT22;30340;52.004;5.908;2023-08-08T11:32:16;21.30;58.30
42037;DHT22;30340;52.004;5.908;2023-08-08T11:34:41;21.10;58.10
42037;DHT22;30340;52.004;5.908;2023-08-08T11:37:08;21.00;57.80
42037;DHT22;30340;52.004;5.908;2023-08-08T11:39:34;21.10;58.10
42037;DHT22;30340;52.004;5.908;2023-08-08T11:42:00;21.10;58.10
42037;DHT22;30340;52.004;5.908;2023-08-08T11:44:26;21.10;57.90
42037;DHT22;30340;52.004;5.908;2023-08-08T11:46:52;21.00;57.70
42037;DHT22;30340;52.004;5.908;2023-08-08T11:49:17;21.10;57.70
42037;DHT22;30340;52.004;5.908;2023-08-08T11:51:44;21.20;57.60
42037;DHT22;30340;52.004;5.908;2023-08-08T11:54:11;21.30;57.70
42037;DHT22;30340;52.004;5.908;2023-08-08T11:56:37;21.40;57.30
42037;DHT22;30340;52.004;5.908;2023-08-08T11:59:04;21.50;57.20
42037;DHT22;30340;52.004;5.908;2023-08-08T12:01:32;21.70;57.40
42037;DHT22;30340;52.004;5.908;2023-08-08T12:03:58;21.70;56.90
42037;DHT22;30340;52.004;5.908;2023-08-08T12:06:28;21.90;57.20
42037;DHT22;30340;52.004;5.908;2023-08-08T12:08:54;21.90;56.80
42037;DHT22;30340;52.004;5.908;2023-08-08T12:11:20;21.90;56.80
42037;DHT22;30340;52.004;5.908;2023-08-08T12:13:46;21.80;56.90
42037;DHT22;30340;52.004;5.908;2023-08-08T12:16:13;21.80;57.20
42037;DHT22;30340;52.004;5.908;2023-08-08T12:18:40;21.80;56.90
42037;DHT22;30340;52.004;5.908;2023-08-08T12:21:07;21.80;57.10
42037;DHT22;30340;52.004;5.908;2023-08-08T12:23:33;21.80;56.80
42037;DHT22;30340;52.004;5.908;2023-08-08T12:26:02;21.70;56.40
42037;DHT22;30340;52.004;5.908;2023-08-08T12:28:28;21.80;56.60
42037;DHT22;30340;52.004;5.908;2023-08-08T12:30:54;22.00;56.30
42037;DHT22;30340;52.004;5.908;2023-08-08T12:33:20;22.20;55.10
42037;DHT22;30340;52.004;5.908;2023-08-08T12:35:47;22.10;55.10
42037;DHT22;30340;52.004;5.908;2023-08-08T12:38:12;22.20;55.30
42037;DHT22;30340;52.004;5.908;2023-08-08T12:40:39;22.40;54.70
42037;DHT22;30340;52.004;5.908;2023-08-08T12:43:05;22.50;54.60
42037;DHT22;30340;52.004;5.908;2023-08-08T12:45:31;22.70;54.30
42037;DHT22;30340;52.004;5.908;2023-08-08T12:47:56;22.80;54.20
42037;DHT22;30340;52.004;5.908;2023-08-08T12:50:22;22.80;54.00
42037;DHT22;30340;52.004;5.908;2023-08-08T12:52:48;22.60;53.50
42037;DHT22;30340;52.004;5.908;2023-08-08T12:55:14;22.60;53.90
42037;DHT22;30340;52.004;5.908;2023-08-08T12:57:42;22.50;54.40
42037;DHT22;30340;52.004;5.908;2023-08-08T13:00:08;22.50;54.60
42037;DHT22;30340;52.004;5.908;2023-08-08T13:02:34;22.50;55.00
42037;DHT22;30340;52.004;5.908;2023-08-08T13:05:00;22.70;54.80
42037;DHT22;30340;52.004;5.908;2023-08-08T13:07:26;22.60;54.00
42037;DHT22;30340;52.004;5.908;2023-08-08T13:09:51;22.40;54.40
42037;DHT22;30340;52.004;5.908;2023-08-08T13:12:17;22.20;54.20
42037;DHT22;30340;52.004;5.908;2023-08-08T13:14:43;22.00;54.90
42037;DHT22;30340;52.004;5.908;2023-08-08T13:17:08;22.00;55.20
42037;DHT22;30340;52.004;5.908;2023-08-08T13:19:34;21.90;55.20
42037;DHT22;30340;52.004;5.908;2023-08-08T13:22:00;21.80;55.60
42037;DHT22;30340;52.004;5.908;2023-08-08T13:24:26;21.60;55.80
42037;DHT22;30340;52.004;5.908;2023-08-08T13:26:51;21.50;55.70
42037;DHT22;30340;52.004;5.908;2023-08-08T13:29:17;21.40;56.00
42037;DHT22;30340;52.004;5.908;2023-08-08T13:31:43;21.40;56.50
42037;DHT22;30340;52.004;5.908;2023-08-08T13:34:09;21.40;56.70
42037;DHT22;30340;52.004;5.908;2023-08-08T13:36:35;21.40;56.80
42037;DHT22;30340;52.004;5.908;2023-08-08T13:39:00;21.50;56.80
42037;DHT22;30340;52.004;5.908;2023-08-08T13:41:26;21.70;56.90
42037;DHT22;30340;52.004;5.908;2023-08-08T13:43:51;21.90;56.70
42037;DHT22;30340;52.004;5.908;2023-08-08T13:46:17;22.00;56.40
42037;DHT22;30340;52.004;5.908;2023-08-08T13:48:43;22.10;56.10
42037;DHT22;30340;52.004;5.908;2023-08-08T13:51:08;22.00;55.70
42037;DHT22;30340;52.004;5.908;2023-08-08T13:53:34;21.80;55.80
42037;DHT22;30340;52.004;5.908;2023-08-08T13:55:59;21.80;56.00
42037;DHT22;30340;52.004;5.908;2023-08-08T13:58:25;21.70;56.30
42037;DHT22;30340;52.004;5.908;2023-08-08T14:00:51;21.50;56.00
42037;DHT22;30340;52.004;5.908;2023-08-08T14:03:17;21.30;56.60
42037;DHT22;30340;52.004;5.908;2023-08-08T14:05:44;21.20;56.90
42037;DHT22;30340;52.004;5.908;2023-08-08T14:08:09;21.10;57.30
42037;DHT22;30340;52.004;5.908;2023-08-08T14:10:36;21.10;57.60
42037;DHT22;30340;52.004;5.908;2023-08-08T14:13:02;21.00;57.70
42037;DHT22;30340;52.004;5.908;2023-08-08T14:15:28;21.10;57.90
42037;DHT22;30340;52.004;5.908;2023-08-08T14:17:54;21.00;58.00
42037;DHT22;30340;52.004;5.908;2023-08-08T14:20:19;21.10;58.20
42037;DHT22;30340;52.004;5.908;2023-08-08T14:22:45;21.20;58.20
42037;DHT22;30340;52.004;5.908;2023-08-08T14:25:14;21.20;58.00
42037;DHT22;30340;52.004;5.908;2023-08-08T14:27:40;21.10;58.20
42037;DHT22;30340;52.004;5.908;2023-08-08T14:30:06;21.10;58.30
42037;DHT22;30340;52.004;5.908;2023-08-08T14:32:32;21.10;58.40
42037;DHT22;30340;52.004;5.908;2023-08-08T14:34:58;21.00;58.30
42037;DHT22;30340;52.004;5.908;2023-08-08T14:37:23;21.10;58.50
42037;DHT22;30340;52.004;5.908;2023-08-08T14:39:49;21.10;58.40
42037;DHT22;30340;52.004;5.908;2023-08-08T14:42:15;21.20;58.40
42037;DHT22;30340;52.004;5.908;2023-08-08T14:44:40;21.20;58.00
42037;DHT22;30340;52.004;5.908;2023-08-08T14:47:06;21.30;58.00
42037;DHT22;30340;52.004;5.908;2023-08-08T14:49:31;21.30;57.50
42037;DHT22;30340;52.004;5.908;2023-08-08T14:51:57;21.20;57.20
42037;DHT22;30340;52.004;5.908;2023-08-08T14:54:23;21.30;57.50
42037;DHT22;30340;52.004;5.908;2023-08-08T14:56:49;21.40;57.60
42037;DHT22;30340;52.004;5.908;2023-08-08T14:59:14;21.60;57.40
42037;DHT22;30340;52.004;5.908;2023-08-08T15:01:40;21.60;57.40
42037;DHT22;30340;52.004;5.908;2023-08-08T15:04:06;21.70;57.40
42037;DHT22;30340;52.004;5.908;2023-08-08T15:06:31;21.70;57.00
42037;DHT22;30340;52.004;5.908;2023-08-08T15:08:57;21.70;56.70
42037;DHT22;30340;52.004;5.908;2023-08-08T15:11:23;21.70;57.10
42037;DHT22;30340;52.004;5.908;2023-08-08T15:13:49;21.70;56.30
42037;DHT22;30340;52.004;5.908;2023-08-08T15:16:15;21.80;56.40
42037;DHT22;30340;52.004;5.908;2023-08-08T15:18:40;21.70;56.00
42037;DHT22;30340;52.004;5.908;2023-08-08T15:21:06;21.70;56.30
42037;DHT22;30340;52.004;5.908;2023-08-08T15:23:32;21.60;56.60
42037;DHT22;30340;52.004;5.908;2023-08-08T15:26:00;21.60;56.70
42037;DHT22;30340;52.004;5.908;2023-08-08T15:28:26;21.70;56.60
42037;DHT22;30340;52.004;5.908;2023-08-08T15:30:52;21.60;56.80